Time;durP1;ratioP1;P1;durP2;ratioP2;P2;SDS_P1;SDS_P2;PMS_P1;PMS_P2;Temp;Humidity;BMP_temperature;BMP_pressure;BME280_temperature;BME280_humidity;BME280_pressure;Samples;Min_cycle;Max_cycle;Signal;HPM_P1;HPM_P2
2021/10/22 00:00:23;;;;;;;6.67;5.35;;;;;;;22.54;55.76;100590.93;1811339;77;20971;-51
2021/10/22 00:02:51;;;;;;;6.95;5.60;;;;;;;22.54;55.75;100588.73;1804375;78;21029;-48
2021/10/22 00:05:17;;;;;;;8.58;6.05;;;;;;;22.53;55.77;100592.07;1800400;78;20999;-47
2021/10/22 00:07:44;;;;;;;7.60;5.47;;;;;;;22.52;55.76;100590.47;1814778;78;22092;-50
2021/10/22 00:10:10;;;;;;;7.85;5.97;;;;;;;22.52;55.77;100600.17;1807953;78;21026;-50
2021/10/22 00:12:37;;;;;;;7.00;5.67;;;;;;;22.52;55.77;100597.97;1809414;78;21065;-47
2021/10/22 00:15:05;;;;;;;7.55;5.78;;;;;;;22.51;55.77;100597.16;1804055;78;21589;-47
2021/10/22 00:17:31;;;;;;;7.97;6.17;;;;;;;22.50;55.78;100594.70;1815609;78;21503;-48
2021/10/22 00:19:57;;;;;;;7.30;5.80;;;;;;;22.50;55.81;100599.69;1814778;78;22124;-48
2021/10/22 00:22:23;;;;;;;7.60;5.35;;;;;;;22.49;55.83;100594.50;1810658;78;21432;-47
2021/10/22 00:24:49;;;;;;;7.08;5.37;;;;;;;22.48;55.81;100597.84;1807645;78;21045;-49
2021/10/22 00:27:15;;;;;;;7.15;5.70;;;;;;;22.48;55.80;100597.84;1807591;78;20935;-47
2021/10/22 00:29:41;;;;;;;7.22;5.70;;;;;;;22.48;55.83;100595.06;1816476;77;20931;-50
2021/10/22 00:32:07;;;;;;;7.78;5.65;;;;;;;22.47;55.84;100596.20;1804186;78;21284;-50
2021/10/22 00:34:33;;;;;;;6.83;5.25;;;;;;;22.47;55.84;100600.36;1814158;78;21591;-46
2021/10/22 00:37:00;;;;;;;6.50;5.17;;;;;;;22.47;55.86;100600.36;1816488;78;20910;-47
2021/10/22 00:39:27;;;;;;;7.62;6.03;;;;;;;22.46;55.85;100606.23;1810469;78;21007;-51
2021/10/22 00:41:54;;;;;;;6.87;5.78;;;;;;;22.46;55.85;100605.66;1807033;78;21290;-46
2021/10/22 00:44:20;;;;;;;7.25;6.08;;;;;;;22.44;55.84;100602.43;1816190;78;23302;-49
2021/10/22 00:46:46;;;;;;;7.45;5.92;;;;;;;22.45;55.87;100600.47;1809097;78;21459;-50
2021/10/22 00:49:12;;;;;;;8.18;6.30;;;;;;;22.45;55.86;100603.24;1817403;78;21077;-48
2021/10/22 00:51:39;;;;;;;8.00;6.03;;;;;;;22.44;55.84;100610.75;1814211;78;20973;-47
2021/10/22 00:54:13;;;;;;;6.87;5.22;;;;;;;22.44;55.86;100603.00;1786234;78;21028;-50
2021/10/22 00:56:37;;;;;;;6.35;5.50;;;;;;;22.44;55.88;100604.38;1806502;78;21669;-48
2021/10/22 00:59:06;;;;;;;6.70;5.70;;;;;;;22.43;55.89;100599.98;1809451;78;21030;-46
2021/10/22 01:01:39;;;;;;;7.20;5.50;;;;;;;22.43;55.90;100597.20;1823572;78;21005;-49
2021/10/22 01:04:06;;;;;;;7.22;5.67;;;;;;;22.45;55.90;100606.02;1804996;78;21022;-48
2021/10/22 01:06:37;;;;;;;6.78;5.35;;;;;;;22.48;55.99;100607.54;1797677;78;21024;-46
2021/10/22 01:09:06;;;;;;;6.25;5.47;;;;;;;22.50;56.08;100604.41;1804258;78;21891;-49
2021/10/22 01:11:33;;;;;;;6.75;5.80;;;;;;;22.52;56.18;100603.52;1817412;78;21003;-50
2021/10/22 01:14:01;;;;;;;6.90;6.05;;;;;;;22.52;56.19;100604.34;1811625;78;21474;-46
2021/10/22 01:16:27;;;;;;;6.47;5.50;;;;;;;22.54;56.15;100605.36;1810743;78;20987;-49
2021/10/22 01:18:53;;;;;;;7.83;5.65;;;;;;;22.54;56.10;100608.95;1813967;78;20907;-51
2021/10/22 01:21:19;;;;;;;7.58;5.80;;;;;;;22.56;56.02;100603.09;1805136;78;21214;-50
2021/10/22 01:23:47;;;;;;;6.25;5.47;;;;;;;22.57;55.98;100601.38;1810701;78;20985;-49
2021/10/22 01:26:13;;;;;;;7.15;5.35;;;;;;;22.57;55.92;100599.98;1805483;77;21035;-48
2021/10/22 01:28:40;;;;;;;7.08;4.90;;;;;;;22.57;55.87;100599.17;1812735;78;21069;-50
2021/10/22 01:31:06;;;;;;;6.28;5.35;;;;;;;22.57;55.84;100602.76;1810079;78;21508;-46
2021/10/22 01:33:32;;;;;;;7.60;5.78;;;;;;;22.56;55.80;100596.97;1812490;78;21273;-48
2021/10/22 01:35:58;;;;;;;9.13;6.80;;;;;;;22.57;55.78;100585.31;1810773;78;21016;-50
2021/10/22 01:38:25;;;;;;;7.00;5.62;;;;;;;22.55;55.73;100589.80;1809038;78;21064;-47
2021/10/22 01:40:55;;;;;;;7.47;6.12;;;;;;;22.54;55.74;100592.31;1807036;78;21456;-47
2021/10/22 01:43:22;;;;;;;6.50;5.67;;;;;;;22.53;55.71;100586.53;1812283;78;21041;-50
2021/10/22 01:45:49;;;;;;;6.85;5.80;;;;;;;22.51;55.68;100583.30;1810911;78;22049;-49
2021/10/22 01:48:15;;;;;;;7.58;6.03;;;;;;;22.51;55.69;100587.45;1813237;78;21427;-47
2021/10/22 01:50:42;;;;;;;7.35;5.75;;;;;;;22.50;55.68;100587.21;1808776;78;21066;-48
2021/10/22 01:53:08;;;;;;;6.72;5.53;;;;;;;22.50;55.69;100581.66;1811101;78;21916;-46
2021/10/22 01:55:34;;;;;;;7.05;5.85;;;;;;;22.48;55.71;100585.36;1780412;78;21137;-46
2021/10/22 01:58:02;;;;;;;6.67;5.47;;;;;;;22.47;55.68;100593.44;1800542;77;21598;-49
2021/10/22 02:00:29;;;;;;;6.58;5.87;;;;;;;22.47;55.69;100589.84;1801984;78;21058;-49
2021/10/22 02:02:56;;;;;;;8.20;5.62;;;;;;;22.46;55.69;100593.19;1798170;78;21026;-49
2021/10/22 02:05:22;;;;;;;9.00;6.40;;;;;;;22.45;55.69;100590.77;1789707;78;21101;-48
2021/10/22 02:07:48;;;;;;;8.18;6.45;;;;;;;22.44;55.69;100593.30;1795243;78;20935;-50
2021/10/22 02:10:14;;;;;;;7.37;6.15;;;;;;;22.43;55.71;100591.66;1799017;78;21315;-47
2021/10/22 02:12:40;;;;;;;8.10;6.25;;;;;;;22.42;55.70;100591.42;1785115;78;20887;-48
2021/10/22 02:15:07;;;;;;;7.35;5.97;;;;;;;22.41;55.71;100595.33;1790371;78;21040;-47
2021/10/22 02:17:34;;;;;;;8.20;6.17;;;;;;;22.40;55.73;100600.09;1802939;78;21062;-48
2021/10/22 02:20:01;;;;;;;6.80;5.72;;;;;;;22.38;55.72;100598.20;1795801;78;20993;-47
2021/10/22 02:22:27;;;;;;;6.17;5.30;;;;;;;22.39;55.75;100603.19;1788284;78;21047;-49
2021/10/22 02:24:53;;;;;;;6.58;5.20;;;;;;;22.38;55.73;100609.30;1800281;78;21335;-49
2021/10/22 02:27:19;;;;;;;6.35;5.72;;;;;;;22.37;55.73;100611.82;1791319;78;20915;-53
2021/10/22 02:29:45;;;;;;;8.03;5.70;;;;;;;22.38;55.74;100612.64;1796477;78;21555;-47
2021/10/22 02:32:11;;;;;;;6.22;5.25;;;;;;;22.36;55.75;100620.48;1793104;78;20882;-47
2021/10/22 02:34:37;;;;;;;7.35;5.90;;;;;;;22.35;55.75;100614.70;1794509;78;21654;-47
2021/10/22 02:37:03;;;;;;;7.87;5.78;;;;;;;22.34;55.75;100616.66;1793438;78;20970;-49
2021/10/22 02:39:33;;;;;;;8.25;6.35;;;;;;;22.33;55.75;100615.02;1793455;78;21047;-49
2021/10/22 02:41:57;;;;;;;8.05;6.03;;;;;;;22.33;55.75;100615.02;1790771;78;21371;-50
2021/10/22 02:44:23;;;;;;;7.10;5.80;;;;;;;22.33;55.77;100624.72;1796439;78;20939;-47
2021/10/22 02:46:49;;;;;;;7.60;5.90;;;;;;;22.31;55.76;100621.48;1796571;78;21650;-49
2021/10/22 02:49:15;;;;;;;7.50;5.83;;;;;;;22.31;55.77;100630.63;1795122;78;20909;-47
2021/10/22 02:51:41;;;;;;;6.83;5.70;;;;;;;22.30;55.75;100626.22;1795778;78;21627;-49
2021/10/22 02:54:07;;;;;;;7.28;5.85;;;;;;;22.31;55.78;100631.19;1799110;78;20868;-47
2021/10/22 02:56:33;;;;;;;6.83;5.08;;;;;;;22.30;55.76;100630.95;1794358;78;21660;-48
2021/10/22 02:58:59;;;;;;;6.60;5.58;;;;;;;22.29;55.76;100629.31;1791997;78;21237;-47
2021/10/22 03:01:25;;;;;;;7.60;5.55;;;;;;;22.28;55.76;100637.37;1797794;78;20970;-48
2021/10/22 03:03:51;;;;;;;7.53;5.83;;;;;;;;;;1791928;78;20922;-49
2021/10/22 03:06:17;;;;;;;6.72;5.58;;;;;;;22.27;55.78;100628.84;1801388;78;20942;-46
2021/10/22 03:08:44;;;;;;;7.03;5.60;;;;;;;22.26;55.78;100632.19;1795424;78;21146;-48
2021/10/22 03:11:10;;;;;;;7.75;5.50;;;;;;;22.26;55.79;100630.80;1791423;78;21443;-49
2021/10/22 03:13:37;;;;;;;7.42;5.62;;;;;;;22.27;55.80;100635.77;1800793;78;20887;-50
2021/10/22 03:16:03;;;;;;;8.00;6.20;;;;;;;22.26;55.79;100635.53;1796349;78;20986;-49
2021/10/22 03:18:29;;;;;;;6.45;5.70;;;;;;;22.25;55.80;100642.20;1802594;78;21147;-48
2021/10/22 03:20:55;;;;;;;6.25;5.47;;;;;;;22.25;55.81;100651.34;1798879;78;21005;-47
2021/10/22 03:23:22;;;;;;;6.80;5.60;;;;;;;22.24;55.80;100651.09;1803177;78;21064;-49
2021/10/22 03:25:49;;;;;;;6.80;5.62;;;;;;;22.24;55.78;100647.50;1789807;78;21477;-49
2021/10/22 03:28:16;;;;;;;6.10;5.33;;;;;;;22.24;55.78;100653.05;1792371;78;20990;-48
2021/10/22 03:30:42;;;;;;;7.60;5.97;;;;;;;22.23;55.79;100656.98;1796742;78;21032;-50
2021/10/22 03:33:08;;;;;;;6.75;5.30;;;;;;;22.22;55.80;100649.81;1796086;78;20982;-48
2021/10/22 03:35:34;;;;;;;6.75;5.83;;;;;;;22.21;55.80;100650.37;1793960;78;22074;-47
2021/10/22 03:38:00;;;;;;;7.33;5.67;;;;;;;22.22;55.80;100653.40;1790650;78;21522;-48
2021/10/22 03:40:26;;;;;;;6.75;5.75;;;;;;;22.22;55.82;100655.35;1799666;78;21140;-47
2021/10/22 03:42:56;;;;;;;7.87;5.53;;;;;;;22.22;55.82;100656.73;1797435;78;21514;-47
2021/10/22 03:45:23;;;;;;;7.45;5.62;;;;;;;22.21;55.80;100653.15;1800244;77;21055;-49
2021/10/22 03:47:49;;;;;;;6.20;5.47;;;;;;;22.21;55.80;100648.99;1812504;77;21495;-47
2021/10/22 03:50:17;;;;;;;7.22;5.83;;;;;;;22.20;55.79;100658.45;1820704;77;21063;-50
2021/10/22 03:52:44;;;;;;;7.50;5.87;;;;;;;22.19;55.79;100659.58;1789748;78;21092;-49
2021/10/22 03:55:14;;;;;;;7.10;5.95;;;;;;;22.19;55.79;100652.66;1793372;78;21884;-47
2021/10/22 03:57:40;;;;;;;7.20;5.45;;;;;;;22.19;55.78;100657.41;1844116;76;21438;-47
2021/10/22 04:00:08;;;;;;;7.40;6.15;;;;;;;22.19;55.79;100661.56;1789848;78;21091;-49
2021/10/22 04:02:34;;;;;;;7.53;5.92;;;;;;;22.18;55.80;100652.44;1790432;78;20994;-47
2021/10/22 04:05:03;;;;;;;6.97;5.50;;;;;;;22.18;55.79;100649.67;1789357;78;20904;-49
2021/10/22 04:07:28;;;;;;;7.17;6.12;;;;;;;22.18;55.79;100647.47;1796349;78;21042;-47
2021/10/22 04:09:54;;;;;;;7.33;5.75;;;;;;;22.17;55.78;100649.98;1766657;79;20975;-46
2021/10/22 04:12:20;;;;;;;7.33;5.12;;;;;;;22.18;55.75;100655.78;1816260;77;21089;-47
2021/10/22 04:14:46;;;;;;;7.22;5.85;;;;;;;22.17;55.75;100658.30;1812917;77;21053;-50
2021/10/22 04:17:12;;;;;;;7.75;6.12;;;;;;;22.16;55.75;100659.44;1809219;77;21765;-56
2021/10/22 04:19:40;;;;;;;74.65;25.72;;;;;;;22.17;55.75;100662.45;1800300;78;20899;-47
2021/10/22 04:22:06;;;;;;;21.02;9.88;;;;;;;22.16;55.75;100648.35;1787633;78;21011;-48
2021/10/22 04:24:32;;;;;;;15.93;8.95;;;;;;;22.16;55.75;100653.33;1786202;78;21122;-55
2021/10/22 04:26:58;;;;;;;55.23;19.32;;;;;;;22.16;55.75;100656.09;1764362;80;21646;-47
2021/10/22 04:29:24;;;;;;;40.48;19.95;;;;;;;22.16;55.75;100654.72;1812176;77;20963;-49
2021/10/22 04:31:50;;;;;;;70.70;31.30;;;;;;;22.17;55.74;100658.30;1819215;77;21069;-46
2021/10/22 04:34:17;;;;;;;20.20;11.20;;;;;;;22.17;55.76;100647.22;1815108;77;21480;-48
2021/10/22 04:36:44;;;;;;;10.80;7.25;;;;;;;22.18;55.76;100646.08;1816605;77;21182;-48
2021/10/22 04:41:55;;;;;;;15.30;9.35;;;;;;;22.19;55.75;100642.95;1814308;77;20979;-51
2021/10/22 04:44:21;;;;;;;29.15;13.43;;;;;;;22.19;55.77;100649.88;1820916;77;21026;-51
2021/10/22 04:46:47;;;;;;;13.98;8.70;;;;;;;22.20;55.74;100658.45;1791713;78;20986;-51
2021/10/22 04:49:13;;;;;;;21.23;10.63;;;;;;;22.22;55.75;100667.83;1795156;78;21235;-52
2021/10/22 04:51:39;;;;;;;10.70;7.72;;;;;;;22.21;55.77;100658.69;1753875;80;20868;-51
2021/10/22 04:54:05;;;;;;;9.73;7.47;;;;;;;22.22;55.76;100667.83;1793049;78;21463;-50
2021/10/22 04:56:32;;;;;;;11.00;7.78;;;;;;;22.23;55.76;100675.81;1800028;78;20901;-53
2021/10/22 04:58:58;;;;;;;8.58;6.78;;;;;;;22.25;55.76;100683.78;1772004;79;21381;-51
2021/10/22 05:01:24;;;;;;;7.83;6.15;;;;;;;22.28;55.78;100690.85;1808136;77;21127;-48
2021/10/22 05:03:50;;;;;;;9.48;6.33;;;;;;;22.33;55.91;100680.16;1807619;77;21015;-49
2021/10/22 05:06:16;;;;;;;20.20;8.48;;;;;;;22.37;56.01;100683.89;1809160;77;20951;-57
2021/10/22 05:08:42;;;;;;;12.60;7.75;;;;;;;22.40;56.11;100687.41;1813251;77;21383;-53
2021/10/22 05:11:08;;;;;;;11.83;6.92;;;;;;;22.45;56.17;100685.81;1803033;77;20875;-50
2021/10/22 05:13:34;;;;;;;14.47;8.75;;;;;;;22.49;56.18;100691.53;1845531;76;21906;-53
2021/10/22 05:16:00;;;;;;;12.25;7.67;;;;;;;22.53;56.13;100692.48;1844143;76;20835;-51
2021/10/22 05:18:28;;;;;;;12.43;7.00;;;;;;;22.55;56.06;100700.70;1835951;77;21031;-51
2021/10/22 05:20:54;;;;;;;10.05;6.83;;;;;;;22.58;55.97;100686.73;1810134;77;21160;-48
2021/10/22 05:23:20;;;;;;;10.18;6.58;;;;;;;22.61;55.89;100701.34;1843675;76;20992;-46
2021/10/22 05:25:46;;;;;;;11.97;8.18;;;;;;;22.63;55.79;100697.07;1845330;76;21840;-48
2021/10/22 05:28:12;;;;;;;11.75;8.35;;;;;;;22.64;55.73;100698.70;1839622;77;20867;-51
2021/10/22 05:30:38;;;;;;;12.78;7.92;;;;;;;22.65;55.68;100700.34;1832572;76;20878;-49
2021/10/22 05:33:04;;;;;;;12.65;7.92;;;;;;;22.65;55.67;100700.34;1842934;77;20866;-46
2021/10/22 05:35:30;;;;;;;10.28;7.60;;;;;;;22.67;55.66;100698.59;1820509;77;21680;-48
2021/10/22 05:37:56;;;;;;;36.15;14.55;;;;;;;22.65;55.63;100694.79;1830357;77;21945;-48
2021/10/22 05:40:22;;;;;;;13.98;8.48;;;;;;;22.65;55.63;100696.17;1844798;77;20970;-50
2021/10/22 05:42:48;;;;;;;24.05;11.22;;;;;;;22.65;55.59;100703.11;1838312;77;21057;-47
2021/10/22 05:45:14;;;;;;;13.68;8.00;;;;;;;22.66;55.60;100715.02;1849886;76;20842;-54
2021/10/22 05:47:41;;;;;;;13.90;8.68;;;;;;;22.66;55.59;100719.18;1836867;76;21001;-49
2021/10/22 05:50:09;;;;;;;12.63;8.85;;;;;;;22.65;55.59;100723.09;1794224;77;21167;-49
2021/10/22 05:52:36;;;;;;;16.23;9.20;;;;;;;22.64;55.58;100732.55;1840407;76;21475;-51
2021/10/22 05:55:03;;;;;;;13.85;9.30;;;;;;;22.64;55.56;100738.91;1838728;76;21093;-49
2021/10/22 05:57:30;;;;;;;48.55;17.30;;;;;;;22.63;55.56;100737.84;1825101;77;21021;-48
2021/10/22 05:59:56;;;;;;;29.00;12.55;;;;;;;22.63;55.56;100749.76;1842806;77;21498;-46
2021/10/22 06:02:22;;;;;;;14.75;9.68;;;;;;;22.62;55.60;100759.22;1843063;77;22066;-49
2021/10/22 06:04:48;;;;;;;12.30;9.23;;;;;;;22.62;55.61;100768.92;1833595;77;21061;-47
2021/10/22 06:07:15;;;;;;;12.90;9.55;;;;;;;22.62;55.61;100763.95;1763710;80;20912;-48
2021/10/22 06:09:41;;;;;;;12.85;9.30;;;;;;;22.61;55.61;100767.31;1738124;80;21007;-46
2021/10/22 06:12:08;;;;;;;12.75;9.13;;;;;;;22.61;55.61;100775.64;1770783;77;21096;-49
2021/10/22 06:14:34;;;;;;;12.47;8.20;;;;;;;22.60;55.61;100773.19;1851847;76;21610;-47
2021/10/22 06:17:02;;;;;;;11.70;8.43;;;;;;;22.59;55.60;100775.14;1852054;76;20973;-50
2021/10/22 06:19:32;;;;;;;14.33;8.78;;;;;;;22.58;55.58;100774.89;1826714;78;21094;-50
2021/10/22 06:24:31;;;;;;;12.93;8.88;;;;;;;22.59;55.57;100786.80;1826189;78;21449;-49
2021/10/22 06:26:57;;;;;;;12.00;9.05;;;;;;;22.57;55.54;100795.47;1823632;78;21247;-48
2021/10/22 06:29:24;;;;;;;11.53;8.20;;;;;;;22.57;55.52;100789.92;1817371;77;21453;-48
2021/10/22 06:31:50;;;;;;;13.50;8.48;;;;;;;22.56;55.50;100785.52;1817729;79;20996;-46
2021/10/22 06:34:16;;;;;;;12.93;9.00;;;;;;;22.57;55.49;100789.11;1817810;78;21547;-48
2021/10/22 06:36:42;;;;;;;12.90;9.03;;;;;;;22.56;55.47;100791.62;1818022;78;21035;-47
2021/10/22 06:39:08;;;;;;;13.40;8.98;;;;;;;22.56;55.46;100801.33;1817781;78;21925;-50
2021/10/22 06:41:34;;;;;;;12.10;8.58;;;;;;;22.56;55.44;100811.86;1823650;78;21066;-48
2021/10/22 06:44:00;;;;;;;15.03;8.70;;;;;;;22.54;55.42;100807.20;1808683;78;20839;-51
2021/10/22 06:46:26;;;;;;;12.13;9.00;;;;;;;22.55;55.41;100810.79;1807748;79;20958;-49
2021/10/22 06:48:54;;;;;;;10.50;8.83;;;;;;;22.55;55.38;100815.77;1834060;76;21357;-50
2021/10/22 06:51:20;;;;;;;14.33;8.33;;;;;;;22.55;55.37;100822.70;1883427;76;21432;-48
2021/10/22 06:53:46;;;;;;;10.95;8.25;;;;;;;22.55;55.35;100827.42;1839386;76;20870;-49
2021/10/22 06:56:13;;;;;;;11.78;8.65;;;;;;;22.54;55.33;100827.99;1816749;78;21550;-48
2021/10/22 06:58:40;;;;;;;11.95;8.33;;;;;;;22.54;55.29;100825.80;1836173;77;21021;-52
2021/10/22 07:01:06;;;;;;;13.80;9.10;;;;;;;22.54;55.28;100825.22;1851646;76;21007;-50
2021/10/22 07:03:43;;;;;;;11.50;9.50;;;;;;;22.55;55.26;100826.04;1833901;77;21307;-49
2021/10/22 07:08:54;;;;;;;10.38;8.35;;;;;;;22.54;55.20;100829.38;1792843;79;20998;-48
2021/10/22 07:11:21;;;;;;;12.68;9.03;;;;;;;22.54;55.19;100827.17;1800357;79;20943;-51
2021/10/22 07:13:53;;;;;;;12.85;9.75;;;;;;;22.53;55.17;100824.97;1800545;79;21018;-48
2021/10/22 07:16:19;;;;;;;11.12;8.43;;;;;;;22.54;55.13;100829.95;1807865;79;20958;-51
2021/10/22 07:18:46;;;;;;;10.75;8.83;;;;;;;22.53;55.12;100832.50;1817815;78;21548;-49
2021/10/22 07:21:14;;;;;;;12.75;9.70;;;;;;;22.53;55.08;100830.52;1817336;79;20959;-49
2021/10/22 07:23:42;;;;;;;11.70;8.35;;;;;;;22.53;55.06;100828.34;1847448;77;21027;-50
2021/10/22 07:26:08;;;;;;;12.75;9.25;;;;;;;22.53;55.06;100832.50;1849370;77;21003;-49
2021/10/22 07:28:34;;;;;;;10.90;8.80;;;;;;;22.53;55.03;100825.57;1817769;78;22008;-50
2021/10/22 07:31:01;;;;;;;10.88;9.00;;;;;;;22.54;55.01;100829.95;1818015;78;20996;-47
2021/10/22 07:33:27;;;;;;;11.57;8.50;;;;;;;22.54;54.98;100834.11;1824727;78;21495;-48
2021/10/22 07:35:59;;;;;;;12.07;9.60;;;;;;;22.53;54.99;100830.52;1825997;78;21058;-50
2021/10/22 07:38:24;;;;;;;10.95;8.90;;;;;;;22.54;54.96;100832.16;1817848;78;21413;-47
2021/10/22 07:41:40;;;;;;;11.83;8.95;;;;;;;22.54;54.94;100832.72;1819531;77;21094;-51
2021/10/22 07:44:06;;;;;;;11.28;8.35;;;;;;;22.54;54.91;100834.11;1821927;78;21961;-47
2021/10/22 07:46:32;;;;;;;10.78;9.33;;;;;;;22.53;54.90;100836.06;1826338;78;21035;-48
2021/10/22 07:48:58;;;;;;;11.78;9.43;;;;;;;22.52;54.87;100834.46;1826090;78;20927;-47
2021/10/22 07:51:24;;;;;;;12.37;9.38;;;;;;;22.53;54.86;100840.22;1826073;78;21051;-48
2021/10/22 07:53:50;;;;;;;10.48;8.28;;;;;;;22.52;54.84;100842.78;1826131;78;21371;-48
2021/10/22 07:56:17;;;;;;;11.12;9.23;;;;;;;22.53;54.83;100847.16;1806462;78;21156;-47
2021/10/22 07:58:44;;;;;;;11.88;9.30;;;;;;;22.53;54.79;100848.55;1785614;80;21050;-50
2021/10/22 08:01:10;;;;;;;9.48;8.13;;;;;;;22.52;54.78;100841.39;1824828;77;21011;-48
2021/10/22 08:03:36;;;;;;;12.23;9.60;;;;;;;22.53;54.74;100842.99;1810705;78;20864;-47
2021/10/22 08:06:03;;;;;;;11.22;9.08;;;;;;;22.53;54.76;100841.61;1795441;79;21580;-47
2021/10/22 08:08:30;;;;;;;11.22;9.08;;;;;;;22.53;54.74;100848.55;1795519;79;21023;-49
2021/10/22 08:10:56;;;;;;;11.73;8.93;;;;;;;22.52;54.72;100846.94;1795705;79;21078;-50
2021/10/22 08:13:23;;;;;;;11.05;8.35;;;;;;;22.53;54.71;100853.30;1818627;78;21058;-46
2021/10/22 08:15:49;;;;;;;10.70;8.95;;;;;;;22.54;54.69;100846.02;1828410;77;21058;-48
2021/10/22 08:18:15;;;;;;;9.78;8.28;;;;;;;22.53;54.66;100844.38;1828293;78;21292;-51
2021/10/22 08:20:50;;;;;;;10.55;8.63;;;;;;;22.53;54.62;100840.22;1828273;78;21066;-50
2021/10/22 08:23:13;;;;;;;10.93;8.75;;;;;;;22.53;54.64;100844.98;1827831;77;20995;-50
2021/10/22 08:25:40;;;;;;;9.35;8.13;;;;;;;22.53;54.62;100844.38;1827787;78;20996;-48
2021/10/22 08:28:06;;;;;;;12.10;8.65;;;;;;;22.54;54.60;100844.63;1811724;78;21296;-50
2021/10/22 08:34:31;;;;;;;9.40;7.72;;;;;;;22.54;54.58;100835.50;1826688;78;20972;-49
2021/10/22 08:36:57;;;;;;;9.95;8.70;;;;;;;22.53;54.57;100837.45;1828143;78;20960;-48
2021/10/22 08:39:23;;;;;;;10.80;9.30;;;;;;;22.53;54.54;100838.05;1828381;78;20860;-50
2021/10/22 08:41:52;;;;;;;10.15;8.18;;;;;;;22.52;54.54;100835.03;1828374;78;21474;-49
2021/10/22 08:44:18;;;;;;;10.15;8.30;;;;;;;22.53;54.52;100828.34;1828368;77;21437;-48
2021/10/22 08:46:47;;;;;;;12.10;8.83;;;;;;;22.52;54.51;100830.87;1818647;78;20939;-50
2021/10/22 08:49:14;;;;;;;11.70;8.90;;;;;;;22.52;54.51;100829.48;1796006;79;21504;-47
2021/10/22 08:51:42;;;;;;;10.32;8.55;;;;;;;22.52;54.50;100814.23;1773503;79;21019;-47
2021/10/22 08:54:09;;;;;;;10.63;8.40;;;;;;;22.51;54.46;100810.64;1795580;79;21004;-51
2021/10/22 08:56:38;;;;;;;8.58;7.47;;;;;;;22.52;54.47;100812.84;1795915;79;20990;-50
2021/10/22 08:59:04;;;;;;;10.50;8.20;;;;;;;22.52;54.45;100820.59;1782356;80;21011;-50
2021/10/22 09:01:30;;;;;;;9.43;7.72;;;;;;;22.53;54.44;100809.72;1816866;78;21563;-47
2021/10/22 09:03:56;;;;;;;10.43;8.15;;;;;;;22.52;54.42;100813.66;1806899;78;21078;-49
2021/10/22 09:06:22;;;;;;;9.58;8.08;;;;;;;22.53;54.39;100806.16;1825736;78;21593;-47
2021/10/22 09:08:56;;;;;;;10.03;8.18;;;;;;;22.53;54.38;100809.72;1820856;78;21202;-47
2021/10/22 09:11:27;;;;;;;9.53;8.15;;;;;;;22.54;54.36;100803.61;1820409;78;21688;-47
2021/10/22 09:14:18;;;;;;;10.28;8.28;;;;;;;22.54;54.32;100801.66;1819991;78;21058;-47
2021/10/22 09:16:48;;;;;;;10.05;7.30;;;;;;;22.54;54.31;100807.20;1821001;78;21842;-46
2021/10/22 09:19:13;;;;;;;9.55;7.05;;;;;;;22.55;54.30;100803.86;1820362;78;20977;-48
2021/10/22 09:21:39;;;;;;;10.98;8.23;;;;;;;22.54;54.29;100803.04;1820613;78;21236;-47
2021/10/22 09:24:19;;;;;;;11.35;8.18;;;;;;;22.54;54.27;100797.50;1819460;78;20845;-50
2021/10/22 09:26:56;;;;;;;9.58;7.95;;;;;;;22.54;54.28;100801.66;1804711;79;20956;-48
2021/10/22 09:29:26;;;;;;;9.65;7.90;;;;;;;22.54;54.23;100804.42;1804575;79;21502;-46
2021/10/22 09:31:54;;;;;;;8.53;7.60;;;;;;;22.55;54.25;100805.24;1805015;79;21067;-48
2021/10/22 09:34:35;;;;;;;9.08;7.90;;;;;;;22.53;54.23;100801.41;1806353;79;21274;-46
2021/10/22 09:37:03;;;;;;;9.95;8.00;;;;;;;22.55;54.21;100803.86;1805284;79;21111;-47
2021/10/22 09:39:36;;;;;;;9.03;7.12;;;;;;;22.55;54.20;100796.36;1821816;78;21033;-48
2021/10/22 09:42:04;;;;;;;8.53;7.20;;;;;;;22.55;54.18;100796.92;1831762;78;21001;-47
2021/10/22 09:44:38;;;;;;;10.43;7.67;;;;;;;22.55;54.15;100792.77;1831624;78;21018;-49
2021/10/22 09:47:10;;;;;;;8.95;7.47;;;;;;;22.55;54.15;100791.38;1829138;78;21135;-46
2021/10/22 09:49:42;;;;;;;9.50;7.37;;;;;;;22.55;54.13;100784.45;1806292;78;21465;-48
2021/10/22 09:52:26;;;;;;;9.05;7.45;;;;;;;22.55;54.11;100789.42;1806353;79;21034;-50
2021/10/22 09:55:14;;;;;;;10.18;7.65;;;;;;;22.55;54.10;100789.42;1806212;79;21789;-50
2021/10/22 09:57:45;;;;;;;8.73;7.70;;;;;;;22.55;54.09;100782.49;1806135;79;20996;-47
2021/10/22 10:00:14;;;;;;;8.18;7.15;;;;;;;22.56;54.07;100791.62;1806402;79;21158;-46
2021/10/22 10:02:41;;;;;;;7.92;6.83;;;;;;;22.54;54.07;100782.24;1793842;78;21064;-48
2021/10/22 10:05:11;;;;;;;8.68;7.12;;;;;;;22.54;54.03;100782.24;1801715;78;21021;-48
2021/10/22 10:07:43;;;;;;;8.67;6.83;;;;;;;22.55;54.03;100782.49;1805202;78;21176;-49
2021/10/22 10:10:10;;;;;;;7.33;6.58;;;;;;;22.56;54.04;100786.09;1783772;79;21090;-50
2021/10/22 10:12:41;;;;;;;9.05;7.20;;;;;;;22.56;54.03;100779.16;1811059;78;21087;-49
2021/10/22 10:15:09;;;;;;;8.15;6.87;;;;;;;22.56;54.03;100782.74;1849155;77;21422;-48
2021/10/22 10:17:46;;;;;;;7.95;7.03;;;;;;;22.56;54.02;100777.77;1853366;77;21066;-48
2021/10/22 10:20:18;;;;;;;8.48;6.70;;;;;;;22.57;54.02;100769.13;1853845;77;21012;-47
2021/10/22 10:22:44;;;;;;;7.72;6.58;;;;;;;22.56;54.01;100771.66;1853368;77;21330;-49
2021/10/22 10:25:11;;;;;;;7.80;6.58;;;;;;;22.58;53.99;100768.53;1853559;77;21779;-50
2021/10/22 10:27:47;;;;;;;7.78;6.72;;;;;;;22.58;53.99;100765.75;1853864;77;21643;-47
2021/10/22 10:30:15;;;;;;;8.83;7.00;;;;;;;22.58;53.98;100766.57;1853683;77;21449;-49
2021/10/22 10:32:42;;;;;;;7.75;6.22;;;;;;;22.58;53.97;100761.59;1853791;77;21039;-50
2021/10/22 10:35:13;;;;;;;6.83;6.12;;;;;;;22.59;53.94;100768.77;1853679;77;21058;-47
2021/10/22 10:37:42;;;;;;;8.10;6.58;;;;;;;22.58;53.93;100754.09;1853833;77;21476;-45
2021/10/22 10:40:26;;;;;;;9.55;7.45;;;;;;;22.60;53.94;100760.70;1833011;77;21018;-45
2021/10/22 10:42:57;;;;;;;7.92;6.50;;;;;;;22.58;53.92;100755.48;1805785;79;21312;-51
2021/10/22 10:45:29;;;;;;;8.45;6.53;;;;;;;22.58;53.92;100747.73;1806022;79;21187;-49
2021/10/22 10:48:14;;;;;;;8.43;6.30;;;;;;;22.59;53.92;100757.11;1805915;79;21067;-47
2021/10/22 10:50:55;;;;;;;7.75;6.12;;;;;;;22.59;53.92;100754.34;1805662;79;21097;-47
2021/10/22 10:53:35;;;;;;;7.10;6.40;;;;;;;22.60;53.92;100752.39;1806218;79;21250;-49
2021/10/22 10:56:03;;;;;;;;;;;;;;;22.61;53.92;100754.02;1808807;79;21797;-48
2021/10/22 10:58:30;;;;;;;8.25;6.58;;;;;;;22.59;53.91;100755.73;1805749;79;20163;-48
2021/10/22 11:01:00;;;;;;;7.37;6.25;;;;;;;22.59;53.92;100752.14;1778648;79;21091;-49
2021/10/22 11:03:46;;;;;;;7.42;6.00;;;;;;;22.58;53.91;100751.32;1806039;79;21155;-48
2021/10/22 11:06:16;;;;;;;6.72;5.60;;;;;;;22.58;53.91;100752.70;1805891;79;20999;-50
2021/10/22 11:08:43;;;;;;;6.83;5.92;;;;;;;22.58;53.88;100754.66;1805962;79;21035;-50
2021/10/22 11:11:35;;;;;;;7.90;6.08;;;;;;;22.59;53.88;100747.41;1805711;79;21044;-49
2021/10/22 11:14:09;;;;;;;7.10;6.12;;;;;;;22.59;53.86;100744.64;1805298;79;21525;-46
2021/10/22 11:16:45;;;;;;;8.13;6.28;;;;;;;22.58;53.86;100736.07;1806211;79;21138;-52
2021/10/22 11:19:26;;;;;;;9.00;6.40;;;;;;;22.61;53.86;100740.16;1805537;79;21027;-50
2021/10/22 11:22:08;;;;;;;6.20;5.50;;;;;;;22.59;53.85;100739.09;1804933;79;21059;-47
2021/10/22 11:24:36;;;;;;;7.42;5.92;;;;;;;22.60;53.84;100742.68;1804318;79;21442;-47
2021/10/22 11:27:16;;;;;;;6.62;5.92;;;;;;;22.60;53.83;100746.84;1805845;79;21406;-52
2021/10/22 11:29:48;;;;;;;6.30;5.70;;;;;;;22.61;53.82;100739.59;1805804;78;21897;-50
2021/10/22 11:32:16;;;;;;;8.93;5.80;;;;;;;22.61;53.82;100743.75;1805684;78;21035;-49
2021/10/22 11:34:48;;;;;;;6.78;5.85;;;;;;;22.61;53.81;100740.16;1806033;79;21024;-47
2021/10/22 11:37:16;;;;;;;6.25;5.20;;;;;;;22.62;53.79;100737.03;1814649;78;21016;-51